Time;durP1;ratioP1;P1;durP2;ratioP2;P2;SDS_P1;SDS_P2;PMS_P1;PMS_P2;Temp;Humidity;BMP_temperature;BMP_pressure;BME280_temperature;BME280_humidity;BME280_pressure;Samples;Min_cycle;Max_cycle;Signal;HPM_P1;HPM_P2
2022/06/22 00:01:42;;;;;;;35.75;7.60;;;20.50;99.90;;;;;;5099552;28;20047;-66
2022/06/22 00:04:17;;;;;;;29.70;7.35;;;20.40;99.90;;;;;;5099672;28;20089;-66
2022/06/22 00:06:50;;;;;;;23.23;7.35;;;20.50;99.90;;;;;;5099318;28;20545;-66
2022/06/22 00:09:24;;;;;;;34.28;8.48;;;20.50;99.90;;;;;;5099216;28;20051;-67
2022/06/22 00:11:51;;;;;;;36.05;7.80;;;20.50;99.90;;;;;;5099465;28;20032;-67
2022/06/22 00:14:19;;;;;;;35.30;7.40;;;20.50;99.90;;;;;;5099552;28;20055;-67
2022/06/22 00:16:51;;;;;;;27.02;6.70;;;20.50;99.90;;;;;;5099571;28;20048;-66
2022/06/22 00:19:31;;;;;;;31.50;6.85;;;20.50;99.90;;;;;;5099535;28;20024;-66
2022/06/22 00:21:58;;;;;;;36.00;7.82;;;20.20;99.90;;;;;;5099385;28;20048;-66
2022/06/22 00:24:24;;;;;;;28.42;7.20;;;19.70;99.90;;;;;;5099460;28;20089;-66
2022/06/22 00:27:18;;;;;;;31.70;8.10;;;19.60;99.90;;;;;;5099246;28;20047;-66
2022/06/22 00:29:45;;;;;;;40.38;6.55;;;19.40;99.90;;;;;;5099163;28;20118;-66
2022/06/22 00:32:24;;;;;;;36.20;7.60;;;19.40;99.90;;;;;;5102220;28;20043;-66
2022/06/22 00:34:50;;;;;;;38.55;9.45;;;19.50;99.90;;;;;;5119962;28;20042;-66
2022/06/22 00:37:21;;;;;;;41.50;8.10;;;19.50;99.90;;;;;;5119645;28;20039;-67
2022/06/22 00:39:48;;;;;;;;;;;19.50;99.90;;;;;;5120182;28;20491;-66
2022/06/22 00:42:21;;;;;;;39.65;7.97;;;19.60;99.90;;;;;;5119376;28;19923;-66
2022/06/22 00:44:58;;;;;;;35.38;7.82;;;19.80;99.90;;;;;;5119370;28;20083;-67
2022/06/22 00:47:46;;;;;;;39.33;7.85;;;20.00;99.90;;;;;;5119292;28;20078;-66
2022/06/22 00:50:20;;;;;;;35.13;9.40;;;20.00;99.90;;;;;;5119420;28;20043;-67
2022/06/22 00:53:04;;;;;;;41.28;8.65;;;20.10;99.90;;;;;;5119623;28;20035;-67
2022/06/22 00:55:35;;;;;;;30.17;7.03;;;20.10;99.90;;;;;;5119597;28;20126;-66
2022/06/22 00:58:15;;;;;;;37.75;8.10;;;20.00;99.90;;;;;;5119629;28;20491;-67
2022/06/22 01:00:42;;;;;;;;;;;19.90;99.90;;;;;;5117772;28;20035;-66
2022/06/22 01:03:24;;;;;;;28.45;7.95;;;19.60;99.90;;;;;;5116631;28;19911;-66
2022/06/22 01:06:39;;;;;;;30.83;6.88;;;19.50;99.90;;;;;;5116013;28;20494;-66
2022/06/22 01:09:17;;;;;;;27.25;6.72;;;19.50;99.90;;;;;;5091940;28;20731;-67
2022/06/22 01:15:00;;;;;;;34.00;8.18;;;19.60;99.90;;;;;;5099483;28;20062;-66
2022/06/22 01:17:36;;;;;;;28.20;7.53;;;19.60;99.90;;;;;;5095525;28;20061;-66
2022/06/22 01:20:24;;;;;;;29.27;8.70;;;19.70;99.90;;;;;;5095564;28;20043;-66
2022/06/22 01:23:12;;;;;;;29.42;7.03;;;19.60;99.90;;;;;;5095593;28;20434;-67
2022/06/22 01:26:08;;;;;;;26.35;7.60;;;19.60;99.90;;;;;;5095465;28;20140;-66
2022/06/22 01:28:34;;;;;;;33.75;8.32;;;19.60;99.90;;;;;;5095073;28;20044;-66
2022/06/22 01:31:14;;;;;;;25.65;8.00;;;19.50;99.90;;;;;;5095439;28;20043;-66
2022/06/22 01:33:45;;;;;;;25.35;7.68;;;19.50;99.90;;;;;;5095493;28;20068;-66
2022/06/22 01:36:20;;;;;;;40.72;8.65;;;19.50;99.90;;;;;;5095342;28;20558;-67
2022/06/22 01:38:46;;;;;;;25.33;8.00;;;19.50;99.90;;;;;;5095227;28;20044;-67
2022/06/22 01:41:36;;;;;;;32.30;9.15;;;19.40;99.90;;;;;;5095081;28;20039;-66
2022/06/22 01:44:14;;;;;;;27.75;8.80;;;19.40;99.90;;;;;;5095301;28;20036;-66
2022/06/22 01:47:11;;;;;;;25.40;9.60;;;19.40;99.90;;;;;;5094843;28;20048;-66
2022/06/22 01:50:19;;;;;;;28.50;8.13;;;19.40;99.90;;;;;;5094831;28;20044;-66
2022/06/22 01:52:51;;;;;;;25.65;8.23;;;19.40;99.90;;;;;;5095121;28;20044;-66
2022/06/22 01:55:53;;;;;;;23.60;8.02;;;19.30;99.90;;;;;;5095010;28;20036;-66
2022/06/22 01:58:19;;;;;;;26.13;8.82;;;19.30;99.90;;;;;;5094627;28;20040;-67
2022/06/22 02:00:54;;;;;;;25.42;6.93;;;19.60;99.90;;;;;;5094705;28;20038;-67
2022/06/22 02:03:33;;;;;;;25.10;6.72;;;19.80;99.90;;;;;;5094851;28;20120;-67
2022/06/22 02:09:10;;;;;;;31.00;8.23;;;20.10;99.90;;;;;;5092403;28;20408;-67
2022/06/22 02:11:46;;;;;;;20.10;6.35;;;20.20;99.90;;;;;;5094159;28;20131;-66
2022/06/22 02:14:19;;;;;;;29.00;7.50;;;20.20;99.90;;;;;;5094078;28;20534;-67
2022/06/22 02:17:04;;;;;;;25.08;7.15;;;20.10;99.90;;;;;;5094405;28;20051;-67
2022/06/22 02:19:31;;;;;;;18.98;6.40;;;20.00;99.90;;;;;;5094347;28;20510;-67
2022/06/22 02:21:58;;;;;;;23.92;7.72;;;19.90;99.90;;;;;;5094161;28;20051;-66
2022/06/22 02:24:29;;;;;;;22.33;7.32;;;19.80;99.90;;;;;;5094146;28;20036;-67
2022/06/22 02:27:03;;;;;;;25.17;7.43;;;19.80;99.90;;;;;;5093855;28;20491;-67
2022/06/22 02:29:33;;;;;;;18.02;7.30;;;19.80;99.90;;;;;;5093972;28;20043;-67
2022/06/22 02:32:04;;;;;;;20.23;7.63;;;19.80;99.90;;;;;;5094243;28;20059;-67
2022/06/22 02:34:32;;;;;;;23.75;7.00;;;19.80;99.90;;;;;;5094321;28;20093;-67
2022/06/22 02:37:01;;;;;;;23.05;6.18;;;19.80;99.90;;;;;;5094089;28;20407;-67
2022/06/22 02:39:29;;;;;;;16.10;7.20;;;19.90;99.90;;;;;;5093937;28;20073;-66
2022/06/22 02:44:44;;;;;;;21.10;6.95;;;19.80;99.90;;;;;;5094060;28;20094;-66
2022/06/22 02:47:22;;;;;;;19.85;7.57;;;19.80;99.90;;;;;;5093772;28;20040;-67
2022/06/22 02:50:12;;;;;;;19.35;6.22;;;19.80;99.90;;;;;;5093549;28;20050;-67
2022/06/22 02:52:44;;;;;;;32.75;7.53;;;19.80;99.90;;;;;;5093068;28;20044;-66
2022/06/22 02:55:18;;;;;;;23.98;7.15;;;19.80;99.90;;;;;;5092774;28;20093;-67
2022/06/22 02:57:53;;;;;;;22.27;7.43;;;19.80;99.90;;;;;;5093371;28;20081;-67
2022/06/22 03:00:35;;;;;;;25.35;7.82;;;19.70;99.90;;;;;;5092844;28;20495;-67
2022/06/22 03:03:08;;;;;;;19.52;7.60;;;19.80;99.90;;;;;;5093512;28;20043;-67
2022/06/22 03:05:34;;;;;;;14.07;6.93;;;19.80;99.90;;;;;;5093489;28;20495;-67
2022/06/22 03:08:01;;;;;;;23.85;8.32;;;19.80;99.90;;;;;;5090715;28;20040;-67
2022/06/22 03:10:43;;;;;;;26.20;8.57;;;19.90;99.90;;;;;;5091483;28;20398;-67
2022/06/22 03:13:16;;;;;;;22.67;7.82;;;19.90;99.90;;;;;;5093060;28;20111;-67
2022/06/22 03:15:43;;;;;;;25.05;8.50;;;19.90;99.90;;;;;;5093508;28;20050;-67
2022/06/22 03:18:15;;;;;;;28.00;9.25;;;19.80;99.90;;;;;;5093334;28;20044;-68
2022/06/22 03:20:49;;;;;;;28.15;9.73;;;19.80;99.90;;;;;;5093174;28;20101;-66
2022/06/22 03:23:39;;;;;;;25.25;9.82;;;19.90;99.90;;;;;;5092727;28;20032;-67
2022/06/22 03:26:14;;;;;;;25.70;9.70;;;19.90;99.90;;;;;;5093252;28;20048;-67
2022/06/22 03:29:02;;;;;;;25.17;9.65;;;20.10;99.90;;;;;;5093072;28;20047;-67
2022/06/22 03:31:37;;;;;;;27.33;10.63;;;20.10;99.90;;;;;;5092295;28;20102;-68
2022/06/22 03:34:10;;;;;;;29.08;9.88;;;20.00;99.90;;;;;;5092994;28;20050;-67
2022/06/22 03:36:46;;;;;;;29.98;10.98;;;20.00;99.90;;;;;;5092990;28;20127;-67
2022/06/22 03:39:16;;;;;;;28.13;9.88;;;20.00;99.90;;;;;;5093034;28;20043;-67
2022/06/22 03:41:47;;;;;;;36.58;9.90;;;20.10;99.90;;;;;;5093268;28;20131;-67
2022/06/22 03:44:25;;;;;;;27.60;9.30;;;20.20;99.90;;;;;;5093132;28;20048;-67
2022/06/22 03:46:56;;;;;;;30.30;9.82;;;20.00;99.90;;;;;;5092951;28;20052;-67
2022/06/22 03:49:37;;;;;;;19.67;7.25;;;20.00;99.90;;;;;;5092828;28;20043;-67
2022/06/22 03:52:18;;;;;;;28.38;8.00;;;20.00;99.90;;;;;;5093002;28;20118;-67
2022/06/22 03:55:10;;;;;;;24.27;8.40;;;19.90;99.90;;;;;;5093075;28;20040;-67
2022/06/22 03:57:39;;;;;;;22.17;7.70;;;19.90;99.90;;;;;;5088737;28;20101;-67
2022/06/22 04:00:10;;;;;;;27.48;8.75;;;19.80;99.90;;;;;;5093034;28;20032;-67
2022/06/22 04:02:36;;;;;;;26.77;8.68;;;19.70;99.90;;;;;;5092788;28;20062;-67
2022/06/22 04:05:04;;;;;;;31.20;9.57;;;19.70;99.90;;;;;;5092381;28;20040;-67
2022/06/22 04:07:39;;;;;;;24.67;9.43;;;19.90;99.90;;;;;;5093147;28;20082;-67
2022/06/22 04:10:12;;;;;;;25.40;9.85;;;20.00;99.90;;;;;;5092919;28;20044;-67
2022/06/22 04:12:44;;;;;;;27.13;8.52;;;19.90;99.90;;;;;;5092865;28;20036;-67
2022/06/22 04:15:29;;;;;;;28.75;8.60;;;19.90;99.90;;;;;;5092788;28;20044;-67
2022/06/22 04:18:02;;;;;;;30.45;8.85;;;19.90;99.90;;;;;;5092662;28;20035;-66
2022/06/22 04:20:51;;;;;;;36.85;9.68;;;19.90;99.90;;;;;;5092783;28;20093;-65
2022/06/22 04:23:31;;;;;;;35.30;9.90;;;19.80;99.90;;;;;;5092777;28;20047;-66
2022/06/22 04:26:20;;;;;;;24.35;8.95;;;19.70;99.90;;;;;;5092691;28;20047;-66
2022/06/22 04:28:51;;;;;;;27.50;9.35;;;19.60;99.90;;;;;;5091928;28;20089;-65
2022/06/22 04:31:29;;;;;;;24.00;9.65;;;19.60;99.90;;;;;;5092697;28;20123;-65
2022/06/22 04:34:02;;;;;;;25.35;9.40;;;19.60;99.90;;;;;;5092567;28;20046;-65
2022/06/22 04:36:31;;;;;;;32.13;9.85;;;19.60;99.90;;;;;;5094280;28;20047;-65
2022/06/22 04:39:00;;;;;;;31.40;10.35;;;19.60;99.90;;;;;;5096395;28;20044;-66
2022/06/22 04:41:36;;;;;;;32.40;9.70;;;19.50;99.90;;;;;;5096216;28;20040;-66
2022/06/22 04:44:24;;;;;;;21.95;9.88;;;19.50;99.90;;;;;;5096235;28;20040;-66
2022/06/22 04:47:12;;;;;;;28.02;10.07;;;19.50;99.90;;;;;;5095601;28;20043;-66
2022/06/22 04:49:55;;;;;;;23.10;10.43;;;19.50;99.90;;;;;;5096079;28;20043;-66
2022/06/22 04:52:33;;;;;;;28.05;10.50;;;19.50;99.90;;;;;;5095992;28;20036;-66
2022/06/22 04:55:05;;;;;;;26.40;10.10;;;19.60;99.90;;;;;;5098330;28;20499;-66
2022/06/22 04:57:35;;;;;;;25.02;9.80;;;19.70;99.90;;;;;;5097407;28;20044;-66
2022/06/22 05:00:19;;;;;;;25.95;9.52;;;19.60;99.90;;;;;;5099281;28;20036;-66
2022/06/22 05:02:49;;;;;;;25.25;9.20;;;19.70;99.90;;;;;;5116239;28;20123;-66
2022/06/22 05:05:20;;;;;;;24.67;9.50;;;19.70;99.90;;;;;;5116235;28;20039;-66
2022/06/22 05:08:03;;;;;;;28.08;10.32;;;19.70;99.90;;;;;;5116105;28;20412;-66
2022/06/22 05:10:54;;;;;;;44.05;12.10;;;19.70;99.90;;;;;;5101578;28;20031;-66
2022/06/22 05:13:26;;;;;;;36.25;10.27;;;19.80;99.90;;;;;;5095873;28;20047;-66
2022/06/22 05:15:57;;;;;;;29.60;10.75;;;19.80;99.90;;;;;;5095720;28;20681;-66
2022/06/22 05:18:30;;;;;;;27.85;9.32;;;19.70;99.90;;;;;;5095591;28;20032;-66
2022/06/22 05:21:19;;;;;;;27.02;10.20;;;19.80;99.90;;;;;;5095578;28;20044;-65
2022/06/22 05:23:53;;;;;;;24.90;8.50;;;19.70;99.90;;;;;;5095582;28;20028;-66
2022/06/22 05:26:24;;;;;;;23.92;8.32;;;19.80;99.90;;;;;;5097253;28;20051;-65
2022/06/22 05:29:20;;;;;;;24.38;8.10;;;19.90;99.90;;;;;;5098611;28;20429;-65
2022/06/22 05:31:55;;;;;;;28.65;8.07;;;20.00;99.90;;;;;;5095921;28;20039;-65
2022/06/22 05:34:30;;;;;;;28.77;7.20;;;19.90;99.90;;;;;;5113436;28;20456;-65
2022/06/22 05:37:15;;;;;;;25.55;8.27;;;19.90;99.90;;;;;;5112791;28;20097;-65
2022/06/22 05:39:46;;;;;;;28.90;7.78;;;19.70;99.90;;;;;;5113723;28;20040;-65
2022/06/22 05:42:15;;;;;;;24.75;6.47;;;19.80;99.90;;;;;;5094581;28;20418;-65
2022/06/22 05:44:41;;;;;;;24.55;6.47;;;19.80;99.90;;;;;;5113809;28;20063;-65
2022/06/22 05:47:20;;;;;;;21.88;6.68;;;19.90;99.90;;;;;;5112918;28;20077;-66
2022/06/22 05:49:49;;;;;;;19.48;6.57;;;19.80;99.90;;;;;;5114526;28;20043;-65
2022/06/22 05:52:25;;;;;;;17.55;6.70;;;19.90;99.90;;;;;;5113689;28;20125;-65
2022/06/22 05:54:59;;;;;;;25.95;7.57;;;19.80;99.90;;;;;;5113307;28;20220;-65
2022/06/22 05:57:47;;;;;;;25.75;6.78;;;19.80;99.90;;;;;;5112644;28;20097;-65
2022/06/22 06:00:17;;;;;;;15.82;7.53;;;19.80;99.90;;;;;;5107691;28;20046;-66
2022/06/22 06:03:19;;;;;;;25.17;8.90;;;19.80;99.90;;;;;;5094092;28;20513;-66
2022/06/22 06:06:01;;;;;;;18.35;8.55;;;19.70;99.90;;;;;;5092571;28;20534;-66
2022/06/22 06:08:36;;;;;;;17.95;8.98;;;19.60;99.90;;;;;;5092997;28;20376;-65
2022/06/22 06:11:04;;;;;;;19.13;9.07;;;19.50;99.90;;;;;;5094355;28;20032;-66
2022/06/22 06:13:38;;;;;;;18.30;8.98;;;19.50;99.90;;;;;;5093863;28;20384;-66
2022/06/22 06:16:12;;;;;;;25.42;10.00;;;19.50;99.90;;;;;;5094164;28;20075;-66
2022/06/22 06:18:41;;;;;;;26.20;10.65;;;19.50;99.90;;;;;;5094067;28;20074;-66
2022/06/22 06:21:16;;;;;;;23.77;10.65;;;19.60;99.90;;;;;;5094120;28;20079;-66
2022/06/22 06:23:54;;;;;;;24.83;10.70;;;19.60;99.90;;;;;;5093387;28;20116;-66
2022/06/22 06:29:32;;;;;;;23.48;11.60;;;19.60;99.90;;;;;;5093773;28;20143;-66
2022/06/22 06:32:36;;;;;;;27.55;12.98;;;19.70;99.90;;;;;;5093779;28;20414;-66
2022/06/22 06:35:17;;;;;;;28.48;12.43;;;19.70;99.90;;;;;;5093067;28;20039;-66
2022/06/22 06:38:09;;;;;;;26.90;11.70;;;19.70;99.90;;;;;;5094300;28;20047;-66
2022/06/22 06:40:49;;;;;;;25.60;12.15;;;19.70;99.90;;;;;;5094183;28;20036;-66
2022/06/22 06:43:29;;;;;;;33.17;12.63;;;19.80;99.90;;;;;;5093739;28;20078;-66
2022/06/22 06:45:57;;;;;;;27.88;12.20;;;19.70;99.90;;;;;;5093835;28;20274;-66
2022/06/22 06:48:25;;;;;;;24.00;11.70;;;19.70;99.90;;;;;;5093848;28;20047;-66
2022/06/22 06:50:55;;;;;;;23.50;12.32;;;19.70;99.90;;;;;;5093998;28;21208;-66
2022/06/22 06:53:29;;;;;;;29.73;12.68;;;19.70;99.90;;;;;;5093999;28;20051;-66
2022/06/22 06:56:09;;;;;;;29.38;12.55;;;19.80;99.90;;;;;;5093967;28;20043;-65
2022/06/22 06:58:40;;;;;;;23.75;11.30;;;19.80;99.90;;;;;;5093272;28;20392;-66
2022/06/22 07:01:12;;;;;;;21.45;11.75;;;19.80;99.90;;;;;;5093858;28;20048;-66
2022/06/22 07:03:40;;;;;;;20.80;10.68;;;19.90;99.90;;;;;;5093375;28;20032;-66
2022/06/22 07:06:06;;;;;;;29.35;11.63;;;20.10;99.90;;;;;;5093251;28;20055;-66
2022/06/22 07:08:38;;;;;;;27.63;11.10;;;20.30;99.90;;;;;;5093470;28;20047;-67
2022/06/22 07:11:31;;;;;;;25.20;10.80;;;20.50;99.90;;;;;;5093684;28;20387;-66
2022/06/22 07:14:11;;;;;;;20.30;10.25;;;20.40;99.90;;;;;;5093516;28;20055;-66
2022/06/22 07:16:37;;;;;;;25.38;10.98;;;20.70;99.90;;;;;;5093339;28;20162;-66
2022/06/22 07:19:11;;;;;;;18.88;8.15;;;21.00;99.90;;;;;;5093441;28;20043;-66
2022/06/22 07:22:00;;;;;;;25.85;9.95;;;21.20;99.90;;;;;;5093345;28;20507;-66
2022/06/22 07:24:31;;;;;;;27.13;8.90;;;21.40;99.90;;;;;;5093247;28;20040;-66
2022/06/22 07:27:16;;;;;;;21.15;8.55;;;21.40;99.90;;;;;;5093278;28;20087;-66
2022/06/22 07:30:03;;;;;;;21.13;8.50;;;21.60;99.90;;;;;;5093410;28;20062;-67
2022/06/22 07:32:56;;;;;;;20.25;7.88;;;21.90;99.90;;;;;;5093366;28;20032;-68
2022/06/22 07:35:36;;;;;;;24.35;9.00;;;22.00;99.90;;;;;;5093229;28;20040;-67
2022/06/22 07:38:22;;;;;;;22.60;8.57;;;21.90;99.90;;;;;;5093094;28;20477;-66
2022/06/22 07:43:34;;;;;;;18.92;6.90;;;22.00;99.90;;;;;;5093007;28;20165;-67
2022/06/22 07:46:00;;;;;;;21.65;6.93;;;22.10;99.90;;;;;;5092964;28;20044;-66
2022/06/22 07:48:29;;;;;;;30.20;6.85;;;21.80;99.90;;;;;;5092719;28;20048;-66
2022/06/22 07:50:57;;;;;;;17.85;6.78;;;21.90;99.90;;;;;;5092896;28;20040;-66
2022/06/22 07:53:51;;;;;;;23.25;7.13;;;22.20;99.90;;;;;;5092968;28;20044;-67
2022/06/22 07:56:38;;;;;;;22.00;6.47;;;22.10;99.90;;;;;;5093069;28;20035;-66
2022/06/22 07:59:11;;;;;;;17.92;6.45;;;22.20;99.90;;;;;;5093149;28;20036;-67
2022/06/22 08:01:43;;;;;;;24.85;6.40;;;22.50;99.90;;;;;;5093030;28;20032;-67
2022/06/22 08:04:16;;;;;;;22.58;6.65;;;22.50;99.90;;;;;;5092790;28;20455;-69
2022/06/22 08:07:01;;;;;;;30.10;6.65;;;22.80;99.90;;;;;;5092843;28;20044;-67
2022/06/22 08:09:43;;;;;;;24.55;6.72;;;22.60;99.90;;;;;;5093436;28;20130;-67
2022/06/22 08:12:23;;;;;;;24.48;6.25;;;22.90;99.90;;;;;;5096479;28;20044;-67
2022/06/22 08:14:54;;;;;;;25.00;7.40;;;22.90;99.90;;;;;;5096627;28;20047;-67
2022/06/22 08:17:42;;;;;;;27.83;6.65;;;23.20;99.90;;;;;;5096927;28;20036;-67
2022/06/22 08:20:30;;;;;;;30.60;6.18;;;23.10;99.90;;;;;;5096847;28;20036;-67
2022/06/22 08:22:58;;;;;;;27.75;7.07;;;23.10;99.90;;;;;;5096108;28;20050;-67
2022/06/22 08:25:24;;;;;;;28.75;7.35;;;23.50;99.90;;;;;;5096753;28;20126;-67
2022/06/22 08:27:52;;;;;;;20.65;6.72;;;23.20;99.90;;;;;;5096457;28;20483;-68
2022/06/22 08:30:19;;;;;;;27.40;5.15;;;23.20;99.90;;;;;;5096425;28;20040;-66
2022/06/22 08:33:13;;;;;;;26.05;6.30;;;23.40;99.90;;;;;;5096726;28;20055;-68
2022/06/22 08:35:49;;;;;;;27.65;6.55;;;23.30;99.90;;;;;;5093580;28;20028;-68
2022/06/22 08:38:29;;;;;;;26.25;6.38;;;23.40;99.90;;;;;;5096305;28;20067;-67
2022/06/22 08:41:18;;;;;;;18.35;5.93;;;23.80;99.90;;;;;;5101966;28;20043;-67
2022/06/22 08:43:56;;;;;;;28.60;5.35;;;24.10;99.90;;;;;;5111662;28;20066;-67
2022/06/22 08:47:05;;;;;;;28.65;6.53;;;24.30;99.90;;;;;;5116742;28;20126;-68
2022/06/22 08:50:08;;;;;;;25.38;5.35;;;24.10;99.90;;;;;;5116773;28;20047;-68
2022/06/22 08:52:40;;;;;;;24.85;5.93;;;24.50;99.90;;;;;;5116630;28;20043;-68
2022/06/22 08:55:21;;;;;;;23.55;5.40;;;24.90;99.90;;;;;;5105868;28;20044;-67
2022/06/22 08:58:17;;;;;;;19.67;5.82;;;24.90;99.90;;;;;;5096154;28;20040;-67
2022/06/22 09:01:09;;;;;;;21.17;5.95;;;24.80;99.90;;;;;;5096034;28;20553;-67
2022/06/22 09:03:55;;;;;;;21.00;5.72;;;25.10;99.90;;;;;;5085571;28;20040;-67
2022/06/22 09:06:51;;;;;;;24.13;6.00;;;25.40;99.90;;;;;;5096038;28;20115;-67
2022/06/22 09:09:45;;;;;;;27.60;6.53;;;25.30;99.90;;;;;;5095839;28;20109;-67
2022/06/22 09:12:30;;;;;;;36.95;5.88;;;25.30;99.90;;;;;;5095919;28;20040;-67
2022/06/22 09:15:16;;;;;;;31.52;5.95;;;25.60;99.90;;;;;;5095810;28;20506;-67
2022/06/22 09:18:08;;;;;;;23.20;5.85;;;25.40;99.90;;;;;;5095904;28;20058;-67
2022/06/22 09:20:44;;;;;;;23.20;4.70;;;25.80;99.90;;;;;;5095858;28;20040;-67
2022/06/22 09:23:27;;;;;;;24.98;5.47;;;25.80;99.90;;;;;;5095118;28;20400;-69
2022/06/22 09:26:28;;;;;;;25.35;6.07;;;25.70;99.90;;;;;;5095646;28;20380;-67
2022/06/22 09:29:32;;;;;;;33.85;6.22;;;25.70;99.90;;;;;;5100116;28;20081;-67
2022/06/22 09:32:13;;;;;;;31.75;5.72;;;25.70;99.90;;;;;;5113744;28;20028;-67
2022/06/22 09:34:55;;;;;;;28.73;6.45;;;26.10;99.90;;;;;;5115834;28;20065;-66
2022/06/22 09:37:34;;;;;;;24.85;5.32;;;26.40;99.90;;;;;;5115851;28;20575;-67
2022/06/22 09:40:11;;;;;;;26.02;5.75;;;26.60;99.90;;;;;;5115737;28;20039;-67
2022/06/22 09:42:56;;;;;;;26.08;6.10;;;26.60;99.90;;;;;;5115612;28;20047;-67
2022/06/22 09:45:43;;;;;;;33.28;6.25;;;26.90;99.90;;;;;;5115667;28;20044;-68
2022/06/22 09:48:30;;;;;;;29.92;6.30;;;26.60;99.90;;;;;;5115353;28;20043;-68
2022/06/22 09:51:15;;;;;;;28.20;6.13;;;26.60;99.90;;;;;;5115414;28;20122;-68
2022/06/22 09:53:59;;;;;;;20.48;5.25;;;26.40;99.90;;;;;;5115562;28;20074;-69
2022/06/22 09:56:52;;;;;;;32.35;6.03;;;26.50;99.90;;;;;;5115429;28;20039;-67
2022/06/22 09:59:27;;;;;;;24.60;5.90;;;26.50;99.90;;;;;;5115535;28;20452;-68
2022/06/22 10:02:23;;;;;;;18.75;6.07;;;26.70;99.90;;;;;;5115923;28;20032;-67
2022/06/22 10:05:16;;;;;;;28.92;6.43;;;26.90;99.90;;;;;;5078427;28;20043;-66
2022/06/22 10:07:56;;;;;;;25.83;6.15;;;26.70;99.90;;;;;;5092095;28;20055;-68
2022/06/22 10:10:51;;;;;;;23.17;5.35;;;26.60;99.90;;;;;;5093222;28;20093;-68
2022/06/22 10:13:38;;;;;;;40.45;7.28;;;26.30;99.90;;;;;;5094543;28;20055;-67
2022/06/22 10:16:35;;;;;;;23.17;6.03;;;26.80;99.90;;;;;;5094832;28;20042;-68
2022/06/22 10:19:22;;;;;;;29.33;6.40;;;27.40;99.90;;;;;;5094696;28;20032;-69
2022/06/22 10:21:56;;;;;;;27.45;6.25;;;27.60;99.90;;;;;;5094637;28;20526;-67
2022/06/22 10:24:31;;;;;;;26.30;5.47;;;27.90;99.90;;;;;;5094548;28;20074;-70
2022/06/22 10:27:12;;;;;;;27.83;5.63;;;28.10;99.90;;;;;;5094297;28;20047;-68
2022/06/22 10:30:09;;;;;;;20.80;5.55;;;27.80;99.90;;;;;;5094299;28;20040;-69
2022/06/22 10:32:35;;;;;;;33.83;5.72;;;27.20;99.90;;;;;;5094097;28;20089;-67
2022/06/22 10:35:15;;;;;;;25.13;5.85;;;26.90;99.90;;;;;;5093698;28;20093;-68
2022/06/22 10:38:24;;;;;;;21.05;6.28;;;27.00;99.90;;;;;;5094325;28;20051;-67
2022/06/22 10:45:10;;;;;;;28.88;6.28;;;27.50;99.90;;;;;;5020956;28;20037;-67
2022/06/22 10:48:11;;;;;;;25.38;5.28;;;27.40;99.90;;;;;;5093463;28;20506;-67
2022/06/22 10:50:47;;;;;;;22.65;5.25;;;28.10;99.90;;;;;;5093673;28;20040;-67
2022/06/22 10:53:37;;;;;;;24.35;5.60;;;27.90;99.90;;;;;;5090420;28;20062;-66
2022/06/22 10:56:43;;;;;;;21.08;4.82;;;28.00;99.90;;;;;;5091993;28;20028;-67
2022/06/22 10:59:25;;;;;;;24.98;5.30;;;27.20;99.90;;;;;;5090585;28;20040;-66
2022/06/22 11:02:15;;;;;;;28.45;5.80;;;27.10;99.90;;;;;;5092052;28;20032;-66
2022/06/22 11:04:59;;;;;;;24.20;5.43;;;26.70;99.90;;;;;;5101599;28;20102;-66
2022/06/22 11:07:46;;;;;;;31.30;5.43;;;26.80;99.90;;;;;;5103100;28;20050;-66
2022/06/22 11:10:28;;;;;;;27.10;5.32;;;26.60;99.90;;;;;;5101216;28;20079;-67
2022/06/22 11:13:00;;;;;;;27.98;5.53;;;26.70;99.90;;;;;;5101930;28;20057;-67
2022/06/22 11:15:42;;;;;;;27.00;6.30;;;26.80;99.90;;;;;;5091547;28;20197;-66
2022/06/22 11:18:23;;;;;;;26.70;4.88;;;26.60;99.90;;;;;;5094178;28;20044;-67
2022/06/22 11:21:04;;;;;;;21.90;5.63;;;26.60;99.90;;;;;;5104341;28;20048;-66
2022/06/22 11:23:39;;;;;;;23.27;5.80;;;26.60;99.90;;;;;;5071068;28;20388;-67
2022/06/22 11:32:04;;;;;;;32.45;5.68;;;26.90;99.90;;;;;;5093479;28;20575;-67
2022/06/22 11:34:58;;;;;;;26.25;6.05;;;26.90;99.90;;;;;;5093857;28;20040;-67
2022/06/22 11:38:02;;;;;;;27.33;5.68;;;26.60;99.90;;;;;;5079717;28;20429;-66
2022/06/22 11:40:55;;;;;;;25.15;6.05;;;26.40;99.90;;;;;;5091041;28;20574;-66
2022/06/22 11:43:41;;;;;;;20.10;4.57;;;26.00;99.90;;;;;;5091141;28;20067;-66
2022/06/22 11:46:07;;;;;;;26.05;6.65;;;25.90;99.90;;;;;;5091554;28;20047;-65
2022/06/22 11:48:56;;;;;;;41.47;8.85;;;25.70;99.90;;;;;;5092014;28;20054;-63
2022/06/22 11:51:48;;;;;;;30.67;5.82;;;25.10;99.90;;;;;;5090159;28;20086;-64
2022/06/22 11:54:23;;;;;;;31.75;5.57;;;24.60;99.90;;;;;;5090962;28;20470;-65
2022/06/22 11:57:09;;;;;;;31.83;5.93;;;24.20;99.90;;;;;;5091015;28;20031;-66
2022/06/22 11:59:50;;;;;;;22.48;5.13;;;23.60;99.90;;;;;;5091022;28;20503;-66
2022/06/22 12:02:58;;;;;;;26.35;5.38;;;23.60;99.90;;;;;;5091000;28;20035;-66
2022/06/22 12:05:50;;;;;;;26.88;6.70;;;23.90;99.90;;;;;;5089810;28;20123;-66
2022/06/22 12:08:37;;;;;;;30.65;6.68;;;23.80;99.90;;;;;;5090866;28;20189;-67
2022/06/22 12:11:32;;;;;;;24.92;5.43;;;23.40;99.90;;;;;;5091413;28;20066;-67
2022/06/22 12:17:10;;;;;;;19.55;3.10;;;23.80;99.90;;;;;;5101951;28;20042;-67
2022/06/22 12:20:06;;;;;;;14.75;3.95;;;23.60;99.90;;;;;;5097473;28;20558;-66
2022/06/22 12:23:03;;;;;;;18.00;3.90;;;23.70;99.90;;;;;;5103000;28;20046;-66
2022/06/22 12:25:34;;;;;;;19.90;4.20;;;23.80;99.90;;;;;;5112587;28;20039;-67
2022/06/22 12:28:28;;;;;;;12.25;3.72;;;23.80;99.90;;;;;;5111240;28;20529;-66
2022/06/22 12:31:15;;;;;;;21.67;3.92;;;23.80;99.90;;;;;;5110976;28;20035;-67
2022/06/22 12:34:25;;;;;;;14.50;3.78;;;23.80;99.90;;;;;;5111038;28;20118;-65
2022/06/22 12:36:58;;;;;;;23.60;4.18;;;23.60;99.90;;;;;;5039414;28;20576;-65
2022/06/22 12:39:50;;;;;;;13.73;3.33;;;;;;;;;;5071937;28;20036;-66
2022/06/22 12:42:48;;;;;;;15.27;3.70;;;22.80;99.90;;;;;;5068730;28;20040;-66
2022/06/22 12:45:39;;;;;;;22.60;4.68;;;22.30;99.90;;;;;;5086665;28;20043;-66
2022/06/22 12:48:07;;;;;;;18.20;3.72;;;21.90;99.90;;;;;;5089295;28;20079;-66
2022/06/22 12:50:40;;;;;;;14.05;2.95;;;21.50;99.90;;;;;;5088207;28;20032;-66
2022/06/22 12:53:13;;;;;;;11.85;2.75;;;21.80;99.90;;;;;;5090297;28;20040;-65
2022/06/22 12:55:44;;;;;;;19.30;3.70;;;22.40;99.90;;;;;;5090350;28;20040;-66
2022/06/22 12:58:27;;;;;;;17.98;3.42;;;23.00;99.90;;;;;;5092595;28;20124;-67
2022/06/22 13:00:57;;;;;;;22.88;3.40;;;23.30;99.90;;;;;;5095045;28;20062;-66
2022/06/22 13:03:32;;;;;;;15.50;2.95;;;23.50;99.90;;;;;;5093738;28;20098;-67
2022/06/22 13:05:59;;;;;;;8.45;2.08;;;23.70;99.90;;;;;;5094188;28;20046;-66
2022/06/22 13:08:27;;;;;;;16.02;3.08;;;23.80;99.90;;;;;;5094175;28;20113;-67
2022/06/22 13:11:01;;;;;;;13.35;2.97;;;23.80;99.90;;;;;;5094010;28;20128;-66
2022/06/22 13:13:53;;;;;;;16.15;3.70;;;23.50;99.90;;;;;;5093048;28;20449;-66
2022/06/22 13:16:41;;;;;;;12.30;3.25;;;23.60;99.90;;;;;;5093235;28;20131;-66
2022/06/22 13:19:32;;;;;;;12.02;3.17;;;23.60;99.90;;;;;;5093058;28;20036;-66
2022/06/22 13:22:24;;;;;;;19.65;3.78;;;23.90;99.90;;;;;;5093192;28;20083;-66
2022/06/22 13:25:16;;;;;;;18.63;3.15;;;23.80;99.90;;;;;;5094391;28;20055;-66
2022/06/22 13:28:04;;;;;;;14.23;2.97;;;23.60;99.90;;;;;;5084040;28;20491;-66
2022/06/22 13:30:48;;;;;;;12.10;2.95;;;23.20;99.90;;;;;;5093687;28;20036;-66
2022/06/22 13:33:36;;;;;;;16.23;3.28;;;22.90;99.90;;;;;;5094717;28;20040;-66
2022/06/22 13:36:29;;;;;;;16.10;3.90;;;22.60;99.90;;;;;;5092846;28;20044;-66
2022/06/22 13:39:09;;;;;;;12.32;3.33;;;22.50;99.90;;;;;;5094719;28;20048;-67
2022/06/22 13:42:12;;;;;;;18.77;3.13;;;22.70;99.90;;;;;;5073096;28;20047;-66
2022/06/22 13:45:18;;;;;;;12.13;3.33;;;22.60;99.90;;;;;;5072894;28;20039;-67
2022/06/22 13:48:37;;;;;;;20.30;3.95;;;21.60;99.90;;;;;;5087060;28;20122;-68
2022/06/22 13:51:40;;;;;;;16.58;2.35;;;19.80;99.90;;;;;;5023242;28;20138;-72
2022/06/22 13:54:48;;;;;;;5.45;1.50;;;18.00;99.90;;;;;;5090024;28;20047;-69
2022/06/22 13:57:35;;;;;;;6.15;1.30;;;18.00;99.90;;;;;;5009726;28;20049;-68
2022/06/22 14:00:19;;;;;;;6.60;1.17;;;18.20;99.90;;;;;;5087628;28;20420;-68
2022/06/22 14:03:17;;;;;;;10.57;1.50;;;18.30;99.90;;;;;;5092517;28;20044;-68
2022/06/22 14:06:00;;;;;;;8.32;1.60;;;18.60;99.90;;;;;;5091386;28;20039;-68
2022/06/22 14:09:06;;;;;;;13.95;1.40;;;19.00;99.90;;;;;;5091817;28;20048;-68
2022/06/22 14:11:53;;;;;;;11.35;1.90;;;18.90;99.90;;;;;;5092107;28;20040;-67